createdAt,value
2023-02-13T00:00:42.050Z,99.38
2023-02-13T00:04:59.182Z,85.15
2023-02-13T00:09:16.359Z,168.07
2023-02-13T00:13:35.261Z,100.50
2023-02-13T00:17:52.376Z,84.55
2023-02-13T00:22:09.882Z,95.80
2023-02-13T00:26:26.989Z,104.35
2023-02-13T00:30:44.107Z,154.85
2023-02-13T00:35:01.219Z,86.15
2023-02-13T00:39:18.447Z,153.43
2023-02-13T00:43:36.072Z,115.68
2023-02-13T00:47:53.362Z,102.88
2023-02-13T00:52:10.560Z,91.40
2023-02-13T00:56:27.872Z,109.40
2023-02-13T01:00:47.190Z,102.22
2023-02-13T01:05:04.475Z,99.72
2023-02-13T01:09:21.644Z,183.45
2023-02-13T01:13:38.873Z,89.68
2023-02-13T01:17:57.486Z,100.55
2023-02-13T01:22:14.793Z,89.70
2023-02-13T01:26:32.000Z,79.60
2023-02-13T01:30:57.023Z,108.63
2023-02-13T01:35:15.827Z,89.20
2023-02-13T01:43:56.060Z,66.32
2023-02-13T01:48:18.227Z,65.72
2023-02-13T01:52:38.243Z,129.25
2023-02-13T01:57:00.570Z,66.25
2023-02-13T02:01:17.780Z,67.18
2023-02-13T02:05:36.358Z,65.65
2023-02-13T02:14:12.429Z,67.13
2023-02-13T02:18:30.008Z,51.10
2023-02-13T02:23:07.933Z,66.13
2023-02-13T02:28:01.513Z,59.80
2023-02-13T02:32:34.264Z,61.55
2023-02-13T02:37:01.275Z,58.08
2023-02-13T02:41:45.082Z,69.05
2023-02-13T02:46:17.857Z,65.00
2023-02-13T02:50:44.013Z,52.20
2023-02-13T02:55:25.810Z,54.38
2023-02-13T03:00:02.637Z,44.58
2023-02-13T03:04:51.201Z,58.95
2023-02-13T03:09:31.762Z,65.95
2023-02-13T03:13:50.080Z,62.25
2023-02-13T03:18:35.482Z,82.38
2023-02-13T03:23:16.240Z,63.33
2023-02-13T03:28:14.495Z,50.10
2023-02-13T03:32:47.501Z,45.60
2023-02-13T03:37:28.387Z,59.10
2023-02-13T03:42:02.568Z,49.65
2023-02-13T03:46:21.251Z,70.90
2023-02-13T03:50:43.227Z,52.50
2023-02-13T03:55:25.081Z,53.00
2023-02-13T03:59:42.263Z,53.20
2023-02-13T04:04:23.077Z,50.58
2023-02-13T04:08:40.444Z,66.47
2023-02-13T04:13:15.899Z,56.53
2023-02-13T04:17:48.058Z,59.22
2023-02-13T04:22:05.182Z,45.08
2023-02-13T04:26:23.629Z,57.72
2023-02-13T04:30:40.815Z,56.40
2023-02-13T04:34:57.920Z,54.95
2023-02-13T04:39:16.168Z,50.50
2023-02-13T04:43:33.265Z,52.42
2023-02-13T04:47:52.190Z,56.47
2023-02-13T04:52:09.313Z,55.05
2023-02-13T04:56:26.426Z,69.82
2023-02-13T05:00:43.817Z,72.63
2023-02-13T05:05:00.972Z,54.63
2023-02-13T05:09:18.045Z,68.22
2023-02-13T05:13:35.163Z,57.75
2023-02-13T05:17:52.453Z,66.40
2023-02-13T05:22:29.517Z,56.53
2023-02-13T05:26:46.670Z,98.07
2023-02-13T05:31:03.927Z,66.63
2023-02-13T05:35:22.260Z,54.75
2023-02-13T05:39:39.367Z,49.47
2023-02-13T05:43:56.479Z,63.17
2023-02-13T05:48:13.558Z,48.17
2023-02-13T05:52:30.660Z,63.05
2023-02-13T05:56:47.766Z,80.45
2023-02-13T06:01:05.526Z,60.15
2023-02-13T06:05:22.626Z,70.43
2023-02-13T06:09:39.782Z,58.67
2023-02-13T06:13:56.940Z,58.83
2023-02-13T06:18:14.047Z,65.35
2023-02-13T06:22:31.122Z,55.53
2023-02-13T06:26:48.262Z,63.38
2023-02-13T06:31:05.662Z,64.97
2023-02-13T06:35:22.847Z,54.20
2023-02-13T06:39:40.159Z,55.20
2023-02-13T06:43:57.424Z,63.17
2023-02-13T06:48:14.863Z,91.03
2023-02-13T06:52:31.959Z,84.80
2023-02-13T06:56:49.153Z,51.78
2023-02-13T07:01:06.444Z,89.00
2023-02-13T07:05:23.613Z,69.55
2023-02-13T07:09:41.302Z,50.45
2023-02-13T07:13:59.064Z,47.87
2023-02-13T07:18:16.419Z,105.15
2023-02-13T07:22:33.628Z,55.92
2023-02-13T07:26:50.725Z,55.25
2023-02-13T07:31:08.163Z,56.75
2023-02-13T07:35:25.496Z,57.58
2023-02-13T07:39:42.791Z,51.83
2023-02-13T07:43:59.981Z,61.55
2023-02-13T07:48:17.106Z,39.70
2023-02-13T07:52:34.361Z,41.17
2023-02-13T07:56:51.446Z,45.30
2023-02-13T08:01:09.711Z,34.67
2023-02-13T08:05:27.476Z,44.67
2023-02-13T08:10:04.524Z,38.83
2023-02-13T08:14:26.203Z,33.58
2023-02-13T08:18:43.318Z,30.45
2023-02-13T08:23:09.453Z,42.50
2023-02-13T08:27:27.973Z,33.50
2023-02-13T08:36:04.111Z,31.00
2023-02-13T08:40:23.444Z,41.83
2023-02-13T08:44:42.664Z,35.00
2023-02-13T08:48:59.742Z,26.13
2023-02-13T08:53:17.726Z,28.75
2023-02-13T08:57:34.963Z,29.83
2023-02-13T09:01:52.064Z,27.08
2023-02-13T09:06:09.316Z,34.17
2023-02-13T09:10:26.410Z,33.13
2023-02-13T09:14:43.573Z,37.65
2023-02-13T09:19:00.736Z,28.23
2023-02-13T09:23:17.809Z,31.67
2023-02-13T09:27:35.854Z,29.15
2023-02-13T09:31:53.201Z,23.95
2023-02-13T09:36:14.460Z,28.35
2023-02-13T09:41:00.547Z,21.35
2023-02-13T09:45:21.786Z,24.02
2023-02-13T09:49:44.043Z,20.63
2023-02-13T09:54:07.341Z,21.55
2023-02-13T09:58:44.666Z,20.25
2023-02-13T10:03:20.389Z,18.20
2023-02-13T10:07:49.312Z,20.33
2023-02-13T10:16:47.912Z,22.67
2023-02-13T10:21:06.682Z,21.42
2023-02-13T10:25:39.197Z,21.40
2023-02-13T10:30:06.903Z,19.63
2023-02-13T10:34:31.218Z,19.13
2023-02-13T10:39:01.923Z,25.42
2023-02-13T10:43:22.344Z,22.40
2023-02-13T10:48:16.292Z,25.20
2023-02-13T10:52:53.631Z,19.50
2023-02-13T10:57:20.766Z,19.98
2023-02-13T11:01:59.401Z,21.45
2023-02-13T11:06:18.928Z,21.00
2023-02-13T11:10:36.156Z,19.90
2023-02-13T11:15:22.308Z,22.52
2023-02-13T11:19:51.627Z,18.48
2023-02-13T11:24:19.131Z,13.77
2023-02-13T11:28:49.330Z,14.65
2023-02-13T11:33:06.347Z,15.25
2023-02-13T11:37:30.380Z,16.30
2023-02-13T11:41:50.880Z,18.15
2023-02-13T11:46:11.117Z,14.60
2023-02-13T11:50:35.020Z,17.67
2023-02-13T11:55:02.160Z,14.68
2023-02-13T11:59:25.149Z,20.20
2023-02-13T12:03:42.880Z,17.80
2023-02-13T12:08:01.733Z,16.87
2023-02-13T12:12:27.289Z,18.45
2023-02-13T12:17:08.679Z,15.52
2023-02-13T12:21:42.035Z,16.90
2023-02-13T12:26:14.818Z,18.20
2023-02-13T12:30:44.009Z,20.17
2023-02-13T12:35:12.704Z,16.65
2023-02-13T12:39:34.605Z,16.33
2023-02-13T12:43:59.995Z,16.75
2023-02-13T12:48:37.600Z,18.42
2023-02-13T12:53:21.745Z,17.52
2023-02-13T12:58:03.057Z,18.77
2023-02-13T13:02:31.515Z,16.00
2023-02-13T13:07:16.183Z,17.38
2023-02-13T13:12:03.725Z,15.65
2023-02-13T13:16:45.243Z,58.13
2023-02-13T13:21:22.340Z,14.82
2023-02-13T13:26:14.878Z,15.75
2023-02-13T13:30:35.888Z,17.50
2023-02-13T13:34:54.814Z,19.85
2023-02-13T13:43:43.190Z,18.05
2023-02-13T13:48:18.623Z,17.33
2023-02-13T13:52:39.553Z,19.95
2023-02-13T13:57:01.892Z,34.17
2023-02-13T14:01:22.241Z,20.58
2023-02-13T14:06:00.997Z,69.40
2023-02-13T14:10:20.959Z,19.77
2023-02-13T14:14:38.004Z,19.98
2023-02-13T14:18:55.118Z,20.15
2023-02-13T14:23:28.733Z,21.25
2023-02-13T14:28:05.500Z,21.17
2023-02-13T14:32:37.487Z,21.95
2023-02-13T14:37:20.691Z,23.08
2023-02-13T14:41:44.019Z,19.75
2023-02-13T14:46:11.924Z,18.48
2023-02-13T14:50:34.840Z,20.92
2023-02-13T14:54:56.813Z,20.95
2023-02-13T14:59:20.066Z,19.85
2023-02-13T15:03:40.136Z,20.13
2023-02-13T15:08:17.878Z,21.33
2023-02-13T15:12:36.788Z,18.83
2023-02-13T15:17:02.802Z,20.52
2023-02-13T15:21:22.749Z,20.08
2023-02-13T15:25:40.514Z,21.33
2023-02-13T15:30:21.143Z,21.37
2023-02-13T15:34:38.341Z,22.92
2023-02-13T15:39:00.080Z,24.52
2023-02-13T15:43:32.086Z,22.77
2023-02-13T15:47:50.465Z,22.70
2023-02-13T15:52:32.513Z,23.27
2023-02-13T15:56:51.736Z,30.27
2023-02-13T16:01:09.733Z,25.02
2023-02-13T16:05:39.497Z,25.95
2023-02-13T16:10:26.411Z,25.67
2023-02-13T16:15:02.224Z,27.80
2023-02-13T16:19:23.600Z,23.77
2023-02-13T16:23:43.897Z,24.52
2023-02-13T16:28:05.666Z,25.70
2023-02-13T16:32:28.133Z,25.80
2023-02-13T16:36:45.324Z,28.55
2023-02-13T16:41:18.639Z,30.73
2023-02-13T16:45:35.937Z,26.27
2023-02-13T16:49:57.373Z,50.30
2023-02-13T16:54:31.605Z,55.95
2023-02-13T16:58:48.712Z,59.22
2023-02-13T17:03:09.253Z,33.53
2023-02-13T17:07:28.338Z,34.97
2023-02-13T17:11:50.589Z,38.15
2023-02-13T17:16:09.414Z,30.70
2023-02-13T17:20:29.698Z,34.28
2023-02-13T17:24:46.844Z,29.73
2023-02-13T17:29:03.939Z,30.30
2023-02-13T17:33:30.068Z,34.78
2023-02-13T17:37:47.147Z,34.45
2023-02-13T17:42:04.511Z,35.42
2023-02-13T17:46:21.706Z,38.50
2023-02-13T17:50:39.487Z,36.17
2023-02-13T17:54:56.722Z,38.17
2023-02-13T17:59:13.820Z,39.10
2023-02-13T18:03:31.087Z,38.45
2023-02-13T18:07:48.792Z,36.90
2023-02-13T18:12:07.768Z,42.97
2023-02-13T18:16:25.410Z,35.58
2023-02-13T18:20:43.418Z,36.50
2023-02-13T18:25:01.609Z,38.90
2023-02-13T18:29:18.772Z,33.83
2023-02-13T18:33:36.309Z,37.95
2023-02-13T18:37:53.659Z,39.95
2023-02-13T18:42:13.120Z,37.25
2023-02-13T18:46:30.488Z,35.40
2023-02-13T18:50:47.785Z,40.58
2023-02-13T18:55:06.947Z,36.55
2023-02-13T18:59:24.135Z,44.33
2023-02-13T19:03:41.416Z,42.28
2023-02-13T19:08:00.613Z,45.13
2023-02-13T19:12:18.158Z,41.97
2023-02-13T19:16:36.140Z,45.63
2023-02-13T19:20:59.394Z,52.03
2023-02-13T19:25:16.888Z,56.95
2023-02-13T19:29:34.041Z,56.65
2023-02-13T19:33:51.422Z,64.25
2023-02-13T19:38:08.835Z,56.78
2023-02-13T19:42:25.994Z,55.92
2023-02-13T19:46:43.378Z,53.22
2023-02-13T19:51:09.215Z,57.05
2023-02-13T19:55:27.199Z,54.78
2023-02-13T19:59:44.377Z,56.00
2023-02-13T20:04:01.739Z,54.00
2023-02-13T20:08:18.992Z,49.50
2023-02-13T20:12:37.222Z,50.92
2023-02-13T20:16:54.553Z,54.05
2023-02-13T20:21:14.196Z,57.55
2023-02-13T20:25:32.206Z,60.00
2023-02-13T20:29:50.208Z,69.40
2023-02-13T20:34:09.029Z,57.28
2023-02-13T20:38:26.188Z,70.90
2023-02-13T20:42:43.310Z,72.07
2023-02-13T20:47:01.114Z,80.03
2023-02-13T20:51:18.861Z,74.97
2023-02-13T20:55:35.993Z,73.87
2023-02-13T20:59:53.250Z,70.30
2023-02-13T21:04:13.683Z,69.03
2023-02-13T21:08:30.776Z,74.45
2023-02-13T21:12:47.905Z,85.60
2023-02-13T21:17:05.007Z,94.47
2023-02-13T21:21:24.099Z,89.55
2023-02-13T21:25:41.195Z,102.57
2023-02-13T21:29:58.478Z,100.75
2023-02-13T21:34:17.856Z,102.55
2023-02-13T21:38:36.055Z,103.90
2023-02-13T21:42:53.404Z,121.53
2023-02-13T21:47:10.541Z,98.40
2023-02-13T21:51:29.342Z,116.32
2023-02-13T21:55:46.477Z,131.52
2023-02-13T22:00:06.491Z,136.68
2023-02-13T22:04:23.618Z,347.50
2023-02-13T22:08:41.010Z,363.52
2023-02-13T22:12:58.135Z,164.80
2023-02-13T22:17:15.203Z,154.85
2023-02-13T22:21:34.433Z,124.60
2023-02-13T22:25:51.521Z,142.60
2023-02-13T22:30:09.109Z,122.30
2023-02-13T22:34:26.269Z,99.60
2023-02-13T22:38:43.773Z,201.15
2023-02-13T22:43:01.319Z,282.03
2023-02-13T22:47:18.408Z,181.18
2023-02-13T22:51:36.736Z,116.68
2023-02-13T23:00:12.800Z,192.02
2023-02-13T23:04:30.189Z,336.27
2023-02-13T23:08:52.280Z,294.20
2023-02-13T23:13:10.559Z,172.32
2023-02-13T23:17:46.727Z,184.93
2023-02-13T23:22:03.853Z,170.02
2023-02-13T23:26:20.992Z,175.68
2023-02-13T23:30:39.892Z,147.88
2023-02-13T23:34:57.032Z,191.50
2023-02-13T23:39:14.239Z,310.70
2023-02-13T23:43:31.363Z,147.10
2023-02-13T23:47:48.544Z,192.60
2023-02-13T23:52:05.692Z,164.73
2023-02-13T23:56:23.811Z,122.63
